sensor_id;sensor_type;location;lat;lon;timestamp;P1;durP1;ratioP1;P2;durP2;ratioP2
1390;SDS011;690;51.454;7.194;2023-02-11T00:00:54;45.27;;;25.90;;
1390;SDS011;690;51.454;7.194;2023-02-11T00:03:21;46.73;;;26.07;;
1390;SDS011;690;51.454;7.194;2023-02-11T00:05:55;42.90;;;27.13;;
1390;SDS011;690;51.454;7.194;2023-02-11T00:08:25;45.20;;;26.13;;
1390;SDS011;690;51.454;7.194;2023-02-11T00:10:52;42.63;;;24.70;;
1390;SDS011;690;51.454;7.194;2023-02-11T00:13:20;46.50;;;24.20;;
1390;SDS011;690;51.454;7.194;2023-02-11T00:15:47;40.23;;;24.93;;
1390;SDS011;690;51.454;7.194;2023-02-11T00:18:14;41.10;;;25.00;;
1390;SDS011;690;51.454;7.194;2023-02-11T00:20:42;45.20;;;26.37;;
1390;SDS011;690;51.454;7.194;2023-02-11T00:23:09;42.10;;;25.50;;
1390;SDS011;690;51.454;7.194;2023-02-11T00:25:38;41.60;;;26.37;;
1390;SDS011;690;51.454;7.194;2023-02-11T00:28:06;44.03;;;24.40;;
1390;SDS011;690;51.454;7.194;2023-02-11T00:30:33;35.10;;;23.97;;
1390;SDS011;690;51.454;7.194;2023-02-11T00:33:00;43.97;;;25.70;;
1390;SDS011;690;51.454;7.194;2023-02-11T00:35:28;48.17;;;24.57;;
1390;SDS011;690;51.454;7.194;2023-02-11T00:37:55;37.87;;;23.87;;
1390;SDS011;690;51.454;7.194;2023-02-11T00:40:22;40.07;;;22.20;;
1390;SDS011;690;51.454;7.194;2023-02-11T00:42:50;39.10;;;24.03;;
1390;SDS011;690;51.454;7.194;2023-02-11T00:45:17;40.67;;;24.30;;
1390;SDS011;690;51.454;7.194;2023-02-11T00:47:44;37.60;;;23.47;;
1390;SDS011;690;51.454;7.194;2023-02-11T00:50:11;39.97;;;24.70;;
1390;SDS011;690;51.454;7.194;2023-02-11T00:52:38;36.23;;;23.57;;
1390;SDS011;690;51.454;7.194;2023-02-11T00:55:06;39.50;;;24.10;;
1390;SDS011;690;51.454;7.194;2023-02-11T00:57:33;39.33;;;23.10;;
1390;SDS011;690;51.454;7.194;2023-02-11T01:00:01;37.13;;;25.80;;
1390;SDS011;690;51.454;7.194;2023-02-11T01:02:29;34.73;;;24.03;;
1390;SDS011;690;51.454;7.194;2023-02-11T01:04:56;32.97;;;22.63;;
1390;SDS011;690;51.454;7.194;2023-02-11T01:07:23;35.57;;;22.80;;
1390;SDS011;690;51.454;7.194;2023-02-11T01:09:50;40.20;;;22.87;;
1390;SDS011;690;51.454;7.194;2023-02-11T01:12:17;32.60;;;22.07;;
1390;SDS011;690;51.454;7.194;2023-02-11T01:14:44;32.23;;;22.53;;
1390;SDS011;690;51.454;7.194;2023-02-11T01:17:12;38.53;;;22.00;;
1390;SDS011;690;51.454;7.194;2023-02-11T01:19:40;36.67;;;22.13;;
1390;SDS011;690;51.454;7.194;2023-02-11T01:22:07;33.63;;;22.37;;
1390;SDS011;690;51.454;7.194;2023-02-11T01:24:33;34.03;;;21.80;;
1390;SDS011;690;51.454;7.194;2023-02-11T01:27:00;36.40;;;22.73;;
1390;SDS011;690;51.454;7.194;2023-02-11T01:29:27;36.90;;;23.27;;
1390;SDS011;690;51.454;7.194;2023-02-11T01:31:54;35.97;;;22.20;;
1390;SDS011;690;51.454;7.194;2023-02-11T01:34:24;37.27;;;23.00;;
1390;SDS011;690;51.454;7.194;2023-02-11T01:36:52;37.30;;;23.57;;
1390;SDS011;690;51.454;7.194;2023-02-11T01:39:22;34.80;;;20.87;;
1390;SDS011;690;51.454;7.194;2023-02-11T01:41:49;36.07;;;23.27;;
1390;SDS011;690;51.454;7.194;2023-02-11T01:44:23;34.63;;;22.33;;
1390;SDS011;690;51.454;7.194;2023-02-11T01:46:51;32.93;;;22.47;;
1390;SDS011;690;51.454;7.194;2023-02-11T01:49:20;31.90;;;19.60;;
1390;SDS011;690;51.454;7.194;2023-02-11T01:51:52;34.20;;;21.20;;
1390;SDS011;690;51.454;7.194;2023-02-11T01:54:25;33.77;;;21.83;;
1390;SDS011;690;51.454;7.194;2023-02-11T01:57:12;30.80;;;21.57;;
1390;SDS011;690;51.454;7.194;2023-02-11T01:59:48;33.13;;;21.50;;
1390;SDS011;690;51.454;7.194;2023-02-11T02:02:31;35.20;;;22.30;;
1390;SDS011;690;51.454;7.194;2023-02-11T02:05:06;32.47;;;20.20;;
1390;SDS011;690;51.454;7.194;2023-02-11T02:07:40;32.60;;;20.53;;
1390;SDS011;690;51.454;7.194;2023-02-11T02:10:16;30.97;;;21.23;;
1390;SDS011;690;51.454;7.194;2023-02-11T02:12:46;31.80;;;22.37;;
1390;SDS011;690;51.454;7.194;2023-02-11T02:15:20;28.90;;;18.93;;
1390;SDS011;690;51.454;7.194;2023-02-11T02:17:55;35.67;;;20.63;;
1390;SDS011;690;51.454;7.194;2023-02-11T02:23:32;30.83;;;19.90;;
1390;SDS011;690;51.454;7.194;2023-02-11T02:32:22;34.33;;;20.40;;
1390;SDS011;690;51.454;7.194;2023-02-11T02:34:57;31.30;;;19.20;;
1390;SDS011;690;51.454;7.194;2023-02-11T02:37:29;31.73;;;20.60;;
1390;SDS011;690;51.454;7.194;2023-02-11T02:40:02;32.63;;;20.87;;
1390;SDS011;690;51.454;7.194;2023-02-11T02:42:33;35.60;;;19.77;;
1390;SDS011;690;51.454;7.194;2023-02-11T02:45:00;30.10;;;19.70;;
1390;SDS011;690;51.454;7.194;2023-02-11T02:47:28;34.37;;;20.40;;
1390;SDS011;690;51.454;7.194;2023-02-11T02:49:55;28.07;;;19.53;;
1390;SDS011;690;51.454;7.194;2023-02-11T02:52:25;36.90;;;20.97;;
1390;SDS011;690;51.454;7.194;2023-02-11T02:55:08;32.00;;;19.07;;
1390;SDS011;690;51.454;7.194;2023-02-11T02:57:51;31.80;;;19.97;;
1390;SDS011;690;51.454;7.194;2023-02-11T03:00:31;32.53;;;18.57;;
1390;SDS011;690;51.454;7.194;2023-02-11T03:03:09;41.30;;;20.27;;
1390;SDS011;690;51.454;7.194;2023-02-11T03:05:49;31.20;;;18.93;;
1390;SDS011;690;51.454;7.194;2023-02-11T03:08:22;36.73;;;21.90;;
1390;SDS011;690;51.454;7.194;2023-02-11T03:10:55;35.60;;;20.97;;
1390;SDS011;690;51.454;7.194;2023-02-11T03:13:25;33.10;;;20.30;;
1390;SDS011;690;51.454;7.194;2023-02-11T03:15:57;28.60;;;21.07;;
1390;SDS011;690;51.454;7.194;2023-02-11T03:18:30;37.73;;;22.37;;
1390;SDS011;690;51.454;7.194;2023-02-11T03:21:00;32.90;;;21.53;;
1390;SDS011;690;51.454;7.194;2023-02-11T03:23:29;30.00;;;21.30;;
1390;SDS011;690;51.454;7.194;2023-02-11T03:26:03;38.37;;;21.30;;
1390;SDS011;690;51.454;7.194;2023-02-11T03:28:34;32.70;;;21.03;;
1390;SDS011;690;51.454;7.194;2023-02-11T03:31:09;32.63;;;21.83;;
1390;SDS011;690;51.454;7.194;2023-02-11T03:33:41;31.73;;;21.10;;
1390;SDS011;690;51.454;7.194;2023-02-11T03:36:18;34.30;;;22.60;;
1390;SDS011;690;51.454;7.194;2023-02-11T03:38:49;27.97;;;19.33;;
1390;SDS011;690;51.454;7.194;2023-02-11T03:41:19;28.03;;;20.20;;
1390;SDS011;690;51.454;7.194;2023-02-11T03:43:49;33.77;;;21.37;;
1390;SDS011;690;51.454;7.194;2023-02-11T03:46:20;31.47;;;21.57;;
1390;SDS011;690;51.454;7.194;2023-02-11T03:48:51;36.77;;;22.40;;
1390;SDS011;690;51.454;7.194;2023-02-11T03:51:21;35.87;;;20.70;;
1390;SDS011;690;51.454;7.194;2023-02-11T03:53:51;35.03;;;21.87;;
1390;SDS011;690;51.454;7.194;2023-02-11T03:56:22;35.23;;;23.13;;
1390;SDS011;690;51.454;7.194;2023-02-11T03:58:53;35.00;;;23.60;;
1390;SDS011;690;51.454;7.194;2023-02-11T04:01:20;35.60;;;23.60;;
1390;SDS011;690;51.454;7.194;2023-02-11T04:03:47;38.47;;;22.93;;
1390;SDS011;690;51.454;7.194;2023-02-11T04:06:15;37.80;;;25.70;;
1390;SDS011;690;51.454;7.194;2023-02-11T04:08:42;39.03;;;24.93;;
1390;SDS011;690;51.454;7.194;2023-02-11T04:11:09;36.77;;;23.90;;
1390;SDS011;690;51.454;7.194;2023-02-11T04:13:36;41.63;;;24.87;;
1390;SDS011;690;51.454;7.194;2023-02-11T04:16:03;35.73;;;24.10;;
1390;SDS011;690;51.454;7.194;2023-02-11T04:18:30;40.40;;;24.20;;
1390;SDS011;690;51.454;7.194;2023-02-11T04:20:57;41.30;;;26.07;;
1390;SDS011;690;51.454;7.194;2023-02-11T04:23:25;44.23;;;25.97;;
1390;SDS011;690;51.454;7.194;2023-02-11T04:25:52;46.17;;;25.80;;
1390;SDS011;690;51.454;7.194;2023-02-11T04:28:18;40.13;;;25.30;;
1390;SDS011;690;51.454;7.194;2023-02-11T04:30:45;35.53;;;23.90;;
1390;SDS011;690;51.454;7.194;2023-02-11T04:33:14;38.60;;;25.90;;
1390;SDS011;690;51.454;7.194;2023-02-11T04:35:41;45.97;;;25.97;;
1390;SDS011;690;51.454;7.194;2023-02-11T04:38:07;43.20;;;23.77;;
1390;SDS011;690;51.454;7.194;2023-02-11T04:40:36;43.47;;;27.40;;
1390;SDS011;690;51.454;7.194;2023-02-11T04:43:02;38.87;;;26.40;;
1390;SDS011;690;51.454;7.194;2023-02-11T04:45:29;39.97;;;24.60;;
1390;SDS011;690;51.454;7.194;2023-02-11T04:47:56;45.00;;;26.73;;
1390;SDS011;690;51.454;7.194;2023-02-11T04:50:23;37.13;;;25.10;;
1390;SDS011;690;51.454;7.194;2023-02-11T04:52:50;43.90;;;27.07;;
1390;SDS011;690;51.454;7.194;2023-02-11T04:55:17;44.73;;;28.87;;
1390;SDS011;690;51.454;7.194;2023-02-11T04:57:45;42.53;;;24.53;;
1390;SDS011;690;51.454;7.194;2023-02-11T05:00:12;42.50;;;27.20;;
1390;SDS011;690;51.454;7.194;2023-02-11T05:02:40;48.30;;;29.00;;
1390;SDS011;690;51.454;7.194;2023-02-11T05:05:07;42.00;;;26.47;;
1390;SDS011;690;51.454;7.194;2023-02-11T05:07:34;41.40;;;26.30;;
1390;SDS011;690;51.454;7.194;2023-02-11T05:10:01;47.30;;;25.83;;
1390;SDS011;690;51.454;7.194;2023-02-11T05:12:29;46.90;;;27.23;;
1390;SDS011;690;51.454;7.194;2023-02-11T05:14:57;39.53;;;27.17;;
1390;SDS011;690;51.454;7.194;2023-02-11T05:17:24;42.70;;;26.67;;
1390;SDS011;690;51.454;7.194;2023-02-11T05:19:50;43.40;;;29.10;;
1390;SDS011;690;51.454;7.194;2023-02-11T05:22:17;52.73;;;30.87;;
1390;SDS011;690;51.454;7.194;2023-02-11T05:24:45;44.27;;;28.17;;
1390;SDS011;690;51.454;7.194;2023-02-11T05:27:12;42.10;;;29.27;;
1390;SDS011;690;51.454;7.194;2023-02-11T05:29:39;45.77;;;29.33;;
1390;SDS011;690;51.454;7.194;2023-02-11T05:32:07;49.13;;;29.83;;
1390;SDS011;690;51.454;7.194;2023-02-11T05:34:34;51.77;;;30.37;;
1390;SDS011;690;51.454;7.194;2023-02-11T05:37:01;46.60;;;29.20;;
1390;SDS011;690;51.454;7.194;2023-02-11T05:39:28;46.83;;;29.23;;
1390;SDS011;690;51.454;7.194;2023-02-11T05:41:55;45.00;;;30.50;;
1390;SDS011;690;51.454;7.194;2023-02-11T05:44:22;50.83;;;30.70;;
1390;SDS011;690;51.454;7.194;2023-02-11T05:46:48;49.07;;;29.77;;
1390;SDS011;690;51.454;7.194;2023-02-11T05:49:17;48.67;;;31.33;;
1390;SDS011;690;51.454;7.194;2023-02-11T05:51:44;44.43;;;28.80;;
1390;SDS011;690;51.454;7.194;2023-02-11T05:54:11;47.20;;;28.37;;
1390;SDS011;690;51.454;7.194;2023-02-11T05:56:38;47.50;;;29.57;;
1390;SDS011;690;51.454;7.194;2023-02-11T05:59:05;48.07;;;27.13;;
1390;SDS011;690;51.454;7.194;2023-02-11T06:01:31;51.20;;;29.83;;
1390;SDS011;690;51.454;7.194;2023-02-11T06:03:58;46.13;;;30.20;;
1390;SDS011;690;51.454;7.194;2023-02-11T06:06:27;49.97;;;32.03;;
1390;SDS011;690;51.454;7.194;2023-02-11T06:08:54;53.37;;;31.57;;
1390;SDS011;690;51.454;7.194;2023-02-11T06:11:21;51.57;;;31.20;;
1390;SDS011;690;51.454;7.194;2023-02-11T06:13:47;48.20;;;31.17;;
1390;SDS011;690;51.454;7.194;2023-02-11T06:16:14;50.57;;;30.27;;
1390;SDS011;690;51.454;7.194;2023-02-11T06:18:41;58.30;;;32.67;;
1390;SDS011;690;51.454;7.194;2023-02-11T06:21:08;50.00;;;29.77;;
1390;SDS011;690;51.454;7.194;2023-02-11T06:23:38;56.33;;;31.67;;
1390;SDS011;690;51.454;7.194;2023-02-11T06:26:05;50.90;;;31.37;;
1390;SDS011;690;51.454;7.194;2023-02-11T06:28:33;56.23;;;30.60;;
1390;SDS011;690;51.454;7.194;2023-02-11T06:31:03;60.40;;;33.57;;
1390;SDS011;690;51.454;7.194;2023-02-11T06:33:31;59.47;;;33.47;;
1390;SDS011;690;51.454;7.194;2023-02-11T06:35:58;57.67;;;35.03;;
1390;SDS011;690;51.454;7.194;2023-02-11T06:38:25;58.03;;;33.40;;
1390;SDS011;690;51.454;7.194;2023-02-11T06:40:54;67.27;;;34.37;;
1390;SDS011;690;51.454;7.194;2023-02-11T06:43:21;60.10;;;36.53;;
1390;SDS011;690;51.454;7.194;2023-02-11T06:45:51;62.00;;;34.20;;
1390;SDS011;690;51.454;7.194;2023-02-11T06:48:18;59.90;;;35.40;;
1390;SDS011;690;51.454;7.194;2023-02-11T06:50:45;62.30;;;35.77;;
1390;SDS011;690;51.454;7.194;2023-02-11T06:53:12;61.87;;;36.90;;
1390;SDS011;690;51.454;7.194;2023-02-11T06:55:39;54.93;;;35.07;;
1390;SDS011;690;51.454;7.194;2023-02-11T06:58:07;70.87;;;36.70;;
1390;SDS011;690;51.454;7.194;2023-02-11T07:00:34;57.90;;;33.60;;
1390;SDS011;690;51.454;7.194;2023-02-11T07:03:01;66.60;;;36.83;;
1390;SDS011;690;51.454;7.194;2023-02-11T07:05:28;59.23;;;34.93;;
1390;SDS011;690;51.454;7.194;2023-02-11T07:07:55;74.00;;;36.87;;
1390;SDS011;690;51.454;7.194;2023-02-11T07:10:22;68.43;;;36.77;;
1390;SDS011;690;51.454;7.194;2023-02-11T07:12:49;71.87;;;36.10;;
1390;SDS011;690;51.454;7.194;2023-02-11T07:15:18;68.40;;;36.10;;
1390;SDS011;690;51.454;7.194;2023-02-11T07:17:44;67.83;;;37.37;;
1390;SDS011;690;51.454;7.194;2023-02-11T07:20:11;64.77;;;35.57;;
1390;SDS011;690;51.454;7.194;2023-02-11T07:22:39;73.73;;;37.83;;
1390;SDS011;690;51.454;7.194;2023-02-11T07:25:06;65.97;;;34.30;;
1390;SDS011;690;51.454;7.194;2023-02-11T07:27:33;64.30;;;37.13;;
1390;SDS011;690;51.454;7.194;2023-02-11T07:30:00;64.17;;;37.47;;
1390;SDS011;690;51.454;7.194;2023-02-11T07:32:28;62.83;;;36.20;;
1390;SDS011;690;51.454;7.194;2023-02-11T07:34:55;64.93;;;36.07;;
1390;SDS011;690;51.454;7.194;2023-02-11T07:37:22;65.47;;;36.30;;
1390;SDS011;690;51.454;7.194;2023-02-11T07:39:49;80.37;;;36.87;;
1390;SDS011;690;51.454;7.194;2023-02-11T07:42:16;72.00;;;39.97;;
1390;SDS011;690;51.454;7.194;2023-02-11T07:44:43;77.27;;;37.87;;
1390;SDS011;690;51.454;7.194;2023-02-11T07:47:11;69.07;;;38.73;;
1390;SDS011;690;51.454;7.194;2023-02-11T07:49:39;79.37;;;39.33;;
1390;SDS011;690;51.454;7.194;2023-02-11T07:52:06;77.77;;;38.50;;
1390;SDS011;690;51.454;7.194;2023-02-11T07:54:32;70.40;;;38.57;;
1390;SDS011;690;51.454;7.194;2023-02-11T07:56:59;67.90;;;36.07;;
1390;SDS011;690;51.454;7.194;2023-02-11T07:59:26;71.23;;;37.93;;
1390;SDS011;690;51.454;7.194;2023-02-11T08:01:53;67.53;;;36.27;;
1390;SDS011;690;51.454;7.194;2023-02-11T08:04:20;73.87;;;37.17;;
1390;SDS011;690;51.454;7.194;2023-02-11T08:06:48;74.97;;;38.73;;
1390;SDS011;690;51.454;7.194;2023-02-11T08:09:16;76.07;;;37.07;;
1390;SDS011;690;51.454;7.194;2023-02-11T08:11:44;84.07;;;39.37;;
1390;SDS011;690;51.454;7.194;2023-02-11T08:14:11;75.23;;;39.57;;
1390;SDS011;690;51.454;7.194;2023-02-11T08:16:38;73.60;;;36.63;;
1390;SDS011;690;51.454;7.194;2023-02-11T08:19:06;75.57;;;37.57;;
1390;SDS011;690;51.454;7.194;2023-02-11T08:21:36;79.00;;;37.37;;
1390;SDS011;690;51.454;7.194;2023-02-11T08:24:06;89.17;;;39.60;;
1390;SDS011;690;51.454;7.194;2023-02-11T08:26:33;91.40;;;39.40;;
1390;SDS011;690;51.454;7.194;2023-02-11T08:29:00;80.67;;;37.83;;
1390;SDS011;690;51.454;7.194;2023-02-11T08:31:31;77.33;;;37.40;;
1390;SDS011;690;51.454;7.194;2023-02-11T08:33:59;77.17;;;39.00;;
1390;SDS011;690;51.454;7.194;2023-02-11T08:36:27;91.80;;;38.23;;
1390;SDS011;690;51.454;7.194;2023-02-11T08:38:56;75.97;;;37.53;;
1390;SDS011;690;51.454;7.194;2023-02-11T08:41:27;83.50;;;36.37;;
1390;SDS011;690;51.454;7.194;2023-02-11T08:43:55;71.10;;;37.83;;
1390;SDS011;690;51.454;7.194;2023-02-11T08:46:21;86.90;;;37.37;;
1390;SDS011;690;51.454;7.194;2023-02-11T08:48:48;74.73;;;35.00;;
1390;SDS011;690;51.454;7.194;2023-02-11T08:51:16;74.47;;;37.93;;
1390;SDS011;690;51.454;7.194;2023-02-11T08:53:44;77.73;;;36.40;;
1390;SDS011;690;51.454;7.194;2023-02-11T08:56:12;79.00;;;37.13;;
1390;SDS011;690;51.454;7.194;2023-02-11T08:58:41;75.83;;;39.13;;
1390;SDS011;690;51.454;7.194;2023-02-11T09:01:09;72.40;;;34.87;;
1390;SDS011;690;51.454;7.194;2023-02-11T09:03:36;91.30;;;38.00;;
1390;SDS011;690;51.454;7.194;2023-02-11T09:06:04;83.07;;;37.90;;
1390;SDS011;690;51.454;7.194;2023-02-11T09:08:32;76.37;;;37.53;;
1390;SDS011;690;51.454;7.194;2023-02-11T09:11:00;69.33;;;37.17;;
1390;SDS011;690;51.454;7.194;2023-02-11T09:13:27;79.03;;;36.60;;
1390;SDS011;690;51.454;7.194;2023-02-11T09:15:56;66.47;;;35.47;;
1390;SDS011;690;51.454;7.194;2023-02-11T09:18:23;65.97;;;34.97;;
1390;SDS011;690;51.454;7.194;2023-02-11T09:20:51;72.10;;;37.50;;
1390;SDS011;690;51.454;7.194;2023-02-11T09:23:17;79.97;;;38.07;;
1390;SDS011;690;51.454;7.194;2023-02-11T09:25:44;75.30;;;36.23;;
1390;SDS011;690;51.454;7.194;2023-02-11T09:28:11;71.77;;;35.87;;
1390;SDS011;690;51.454;7.194;2023-02-11T09:30:38;62.33;;;34.43;;
1390;SDS011;690;51.454;7.194;2023-02-11T09:33:07;62.33;;;34.83;;
1390;SDS011;690;51.454;7.194;2023-02-11T09:35:34;67.10;;;35.47;;
1390;SDS011;690;51.454;7.194;2023-02-11T09:38:01;75.57;;;35.97;;
1390;SDS011;690;51.454;7.194;2023-02-11T09:40:28;70.67;;;34.97;;
1390;SDS011;690;51.454;7.194;2023-02-11T09:42:56;69.00;;;35.77;;
1390;SDS011;690;51.454;7.194;2023-02-11T09:45:29;69.93;;;36.90;;
1390;SDS011;690;51.454;7.194;2023-02-11T09:47:58;65.47;;;36.00;;
1390;SDS011;690;51.454;7.194;2023-02-11T09:50:30;64.30;;;35.10;;
1390;SDS011;690;51.454;7.194;2023-02-11T09:53:00;59.40;;;36.53;;
1390;SDS011;690;51.454;7.194;2023-02-11T09:55:30;66.10;;;36.17;;
1390;SDS011;690;51.454;7.194;2023-02-11T09:58:02;61.07;;;34.87;;
1390;SDS011;690;51.454;7.194;2023-02-11T10:00:33;71.70;;;36.80;;
1390;SDS011;690;51.454;7.194;2023-02-11T10:06:11;68.80;;;35.00;;
1390;SDS011;690;51.454;7.194;2023-02-11T10:08:52;64.63;;;34.73;;
1390;SDS011;690;51.454;7.194;2023-02-11T10:11:29;63.93;;;35.90;;
1390;SDS011;690;51.454;7.194;2023-02-11T10:14:05;68.20;;;33.00;;
1390;SDS011;690;51.454;7.194;2023-02-11T10:16:42;65.97;;;36.80;;
1390;SDS011;690;51.454;7.194;2023-02-11T10:19:32;58.07;;;34.60;;
1390;SDS011;690;51.454;7.194;2023-02-11T10:22:11;66.83;;;34.97;;
1390;SDS011;690;51.454;7.194;2023-02-11T10:24:47;77.20;;;35.97;;
1390;SDS011;690;51.454;7.194;2023-02-11T10:27:19;65.50;;;34.43;;
1390;SDS011;690;51.454;7.194;2023-02-11T10:29:50;73.87;;;37.40;;
1390;SDS011;690;51.454;7.194;2023-02-11T10:32:24;67.80;;;36.27;;
1390;SDS011;690;51.454;7.194;2023-02-11T10:34:57;61.50;;;33.00;;
1390;SDS011;690;51.454;7.194;2023-02-11T10:37:28;66.23;;;35.33;;
1390;SDS011;690;51.454;7.194;2023-02-11T10:39:55;70.07;;;37.47;;
1390;SDS011;690;51.454;7.194;2023-02-11T10:42:22;72.57;;;35.03;;
1390;SDS011;690;51.454;7.194;2023-02-11T10:44:53;69.33;;;38.27;;
1390;SDS011;690;51.454;7.194;2023-02-11T10:47:24;70.90;;;36.13;;
1390;SDS011;690;51.454;7.194;2023-02-11T10:49:56;70.63;;;36.30;;
1390;SDS011;690;51.454;7.194;2023-02-11T10:52:29;71.97;;;36.63;;
1390;SDS011;690;51.454;7.194;2023-02-11T10:54:57;73.10;;;38.60;;
1390;SDS011;690;51.454;7.194;2023-02-11T10:57:30;71.67;;;36.47;;
1390;SDS011;690;51.454;7.194;2023-02-11T11:00:04;71.87;;;37.77;;
1390;SDS011;690;51.454;7.194;2023-02-11T11:02:44;76.60;;;40.97;;
1390;SDS011;690;51.454;7.194;2023-02-11T11:05:19;64.57;;;37.07;;
1390;SDS011;690;51.454;7.194;2023-02-11T11:07:52;72.63;;;39.07;;
1390;SDS011;690;51.454;7.194;2023-02-11T11:13:25;68.43;;;36.70;;
1390;SDS011;690;51.454;7.194;2023-02-11T11:16:17;70.70;;;38.30;;
1390;SDS011;690;51.454;7.194;2023-02-11T11:18:46;70.00;;;37.80;;
1390;SDS011;690;51.454;7.194;2023-02-11T11:21:16;68.30;;;35.83;;
1390;SDS011;690;51.454;7.194;2023-02-11T11:23:47;66.37;;;35.57;;
1390;SDS011;690;51.454;7.194;2023-02-11T11:26:16;66.33;;;37.70;;
1390;SDS011;690;51.454;7.194;2023-02-11T11:28:50;67.50;;;36.57;;
1390;SDS011;690;51.454;7.194;2023-02-11T11:31:33;80.33;;;39.03;;
1390;SDS011;690;51.454;7.194;2023-02-11T11:34:04;73.27;;;36.73;;
1390;SDS011;690;51.454;7.194;2023-02-11T11:36:46;77.90;;;39.10;;
1390;SDS011;690;51.454;7.194;2023-02-11T11:39:18;75.70;;;39.90;;
1390;SDS011;690;51.454;7.194;2023-02-11T11:41:51;78.50;;;40.07;;
1390;SDS011;690;51.454;7.194;2023-02-11T11:44:24;70.57;;;40.33;;
1390;SDS011;690;51.454;7.194;2023-02-11T11:47:03;77.20;;;39.10;;
1390;SDS011;690;51.454;7.194;2023-02-11T11:49:44;75.23;;;41.87;;
1390;SDS011;690;51.454;7.194;2023-02-11T11:52:18;79.93;;;41.50;;
1390;SDS011;690;51.454;7.194;2023-02-11T11:55:02;84.77;;;41.23;;
1390;SDS011;690;51.454;7.194;2023-02-11T11:57:36;88.97;;;41.10;;
1390;SDS011;690;51.454;7.194;2023-02-11T12:00:04;73.80;;;40.90;;
1390;SDS011;690;51.454;7.194;2023-02-11T12:02:46;86.57;;;42.27;;
1390;SDS011;690;51.454;7.194;2023-02-11T12:05:46;76.80;;;38.40;;
1390;SDS011;690;51.454;7.194;2023-02-11T12:08:21;70.60;;;40.10;;
1390;SDS011;690;51.454;7.194;2023-02-11T12:10:58;72.40;;;39.20;;
1390;SDS011;690;51.454;7.194;2023-02-11T12:13:43;69.50;;;38.43;;
1390;SDS011;690;51.454;7.194;2023-02-11T12:16:20;72.80;;;41.17;;
1390;SDS011;690;51.454;7.194;2023-02-11T12:19:13;72.80;;;38.60;;
1390;SDS011;690;51.454;7.194;2023-02-11T12:22:03;68.60;;;39.93;;
1390;SDS011;690;51.454;7.194;2023-02-11T12:24:40;71.40;;;40.40;;
1390;SDS011;690;51.454;7.194;2023-02-11T12:27:22;70.20;;;39.90;;
1390;SDS011;690;51.454;7.194;2023-02-11T12:30:03;76.57;;;38.07;;
1390;SDS011;690;51.454;7.194;2023-02-11T12:32:47;70.83;;;39.07;;
1390;SDS011;690;51.454;7.194;2023-02-11T12:35:23;73.10;;;39.23;;
1390;SDS011;690;51.454;7.194;2023-02-11T12:38:04;71.77;;;40.50;;
1390;SDS011;690;51.454;7.194;2023-02-11T12:40:48;76.60;;;42.37;;
1390;SDS011;690;51.454;7.194;2023-02-11T12:43:22;80.30;;;41.37;;
1390;SDS011;690;51.454;7.194;2023-02-11T12:45:58;77.20;;;41.07;;
1390;SDS011;690;51.454;7.194;2023-02-11T12:48:52;74.67;;;38.90;;
1390;SDS011;690;51.454;7.194;2023-02-11T12:51:48;66.80;;;39.20;;
1390;SDS011;690;51.454;7.194;2023-02-11T12:54:26;82.83;;;42.07;;
1390;SDS011;690;51.454;7.194;2023-02-11T12:56:58;75.90;;;39.83;;
1390;SDS011;690;51.454;7.194;2023-02-11T12:59:39;76.90;;;40.57;;
1390;SDS011;690;51.454;7.194;2023-02-11T13:02:17;67.83;;;39.93;;
1390;SDS011;690;51.454;7.194;2023-02-11T13:04:48;70.67;;;39.07;;
1390;SDS011;690;51.454;7.194;2023-02-11T13:07:21;78.57;;;40.97;;
1390;SDS011;690;51.454;7.194;2023-02-11T13:09:53;78.10;;;40.77;;
1390;SDS011;690;51.454;7.194;2023-02-11T13:12:26;79.80;;;43.93;;
1390;SDS011;690;51.454;7.194;2023-02-11T13:15:14;78.70;;;42.90;;
1390;SDS011;690;51.454;7.194;2023-02-11T13:17:43;73.10;;;41.30;;
1390;SDS011;690;51.454;7.194;2023-02-11T13:20:17;74.97;;;40.83;;
1390;SDS011;690;51.454;7.194;2023-02-11T13:22:55;71.93;;;39.67;;
1390;SDS011;690;51.454;7.194;2023-02-11T13:25:30;71.97;;;41.70;;
1390;SDS011;690;51.454;7.194;2023-02-11T13:28:03;71.93;;;39.87;;
1390;SDS011;690;51.454;7.194;2023-02-11T13:30:44;79.37;;;41.60;;
1390;SDS011;690;51.454;7.194;2023-02-11T13:33:20;74.20;;;41.00;;
1390;SDS011;690;51.454;7.194;2023-02-11T13:36:11;73.63;;;39.97;;
1390;SDS011;690;51.454;7.194;2023-02-11T13:38:40;69.83;;;42.33;;
1390;SDS011;690;51.454;7.194;2023-02-11T13:41:18;79.90;;;42.57;;
1390;SDS011;690;51.454;7.194;2023-02-11T13:43:56;77.67;;;42.30;;
1390;SDS011;690;51.454;7.194;2023-02-11T13:46:26;74.50;;;40.87;;
1390;SDS011;690;51.454;7.194;2023-02-11T13:48:54;76.60;;;40.67;;
1390;SDS011;690;51.454;7.194;2023-02-11T13:51:33;77.77;;;41.20;;
1390;SDS011;690;51.454;7.194;2023-02-11T13:54:01;90.77;;;42.60;;
1390;SDS011;690;51.454;7.194;2023-02-11T13:56:30;76.27;;;40.73;;
1390;SDS011;690;51.454;7.194;2023-02-11T13:58:59;78.33;;;41.50;;
1390;SDS011;690;51.454;7.194;2023-02-11T14:01:43;72.53;;;40.20;;
1390;SDS011;690;51.454;7.194;2023-02-11T14:05:08;69.00;;;39.00;;
1390;SDS011;690;51.454;7.194;2023-02-11T14:08:10;69.53;;;38.90;;
1390;SDS011;690;51.454;7.194;2023-02-11T14:11:01;63.57;;;37.10;;
1390;SDS011;690;51.454;7.194;2023-02-11T14:13:33;64.97;;;36.87;;
1390;SDS011;690;51.454;7.194;2023-02-11T14:16:04;67.87;;;37.70;;
1390;SDS011;690;51.454;7.194;2023-02-11T14:21:34;60.33;;;37.10;;
1390;SDS011;690;51.454;7.194;2023-02-11T14:27:23;54.87;;;33.00;;
1390;SDS011;690;51.454;7.194;2023-02-11T14:32:55;68.00;;;35.60;;
1390;SDS011;690;51.454;7.194;2023-02-11T14:35:38;53.63;;;33.20;;
1390;SDS011;690;51.454;7.194;2023-02-11T14:38:15;60.70;;;33.87;;
1390;SDS011;690;51.454;7.194;2023-02-11T14:40:50;53.80;;;32.50;;
1390;SDS011;690;51.454;7.194;2023-02-11T14:43:22;57.53;;;34.40;;
1390;SDS011;690;51.454;7.194;2023-02-11T14:45:52;62.07;;;35.37;;
1390;SDS011;690;51.454;7.194;2023-02-11T14:48:21;61.40;;;34.33;;
1390;SDS011;690;51.454;7.194;2023-02-11T14:50:56;52.93;;;31.97;;
1390;SDS011;690;51.454;7.194;2023-02-11T14:53:26;65.33;;;32.10;;
1390;SDS011;690;51.454;7.194;2023-02-11T14:55:56;51.03;;;32.70;;
1390;SDS011;690;51.454;7.194;2023-02-11T14:58:23;55.57;;;31.33;;
1390;SDS011;690;51.454;7.194;2023-02-11T15:00:53;53.83;;;32.90;;
1390;SDS011;690;51.454;7.194;2023-02-11T15:03:25;58.80;;;33.17;;
1390;SDS011;690;51.454;7.194;2023-02-11T15:05:56;49.40;;;30.77;;
1390;SDS011;690;51.454;7.194;2023-02-11T15:08:25;57.27;;;31.17;;
1390;SDS011;690;51.454;7.194;2023-02-11T15:10:53;55.77;;;31.77;;
1390;SDS011;690;51.454;7.194;2023-02-11T15:13:22;52.27;;;31.13;;
1390;SDS011;690;51.454;7.194;2023-02-11T15:15:56;56.17;;;31.30;;
1390;SDS011;690;51.454;7.194;2023-02-11T15:18:29;55.10;;;31.57;;
1390;SDS011;690;51.454;7.194;2023-02-11T15:21:02;49.80;;;29.20;;
1390;SDS011;690;51.454;7.194;2023-02-11T15:23:29;47.43;;;29.97;;
1390;SDS011;690;51.454;7.194;2023-02-11T15:25:57;47.80;;;32.20;;
1390;SDS011;690;51.454;7.194;2023-02-11T15:28:28;48.10;;;30.97;;
1390;SDS011;690;51.454;7.194;2023-02-11T15:31:00;54.03;;;30.13;;
1390;SDS011;690;51.454;7.194;2023-02-11T15:33:29;44.83;;;30.73;;
1390;SDS011;690;51.454;7.194;2023-02-11T15:35:57;46.67;;;29.10;;
1390;SDS011;690;51.454;7.194;2023-02-11T15:38:26;48.80;;;32.13;;
1390;SDS011;690;51.454;7.194;2023-02-11T15:40:55;47.97;;;30.83;;
1390;SDS011;690;51.454;7.194;2023-02-11T15:43:25;52.80;;;32.37;;
1390;SDS011;690;51.454;7.194;2023-02-11T15:46:06;48.87;;;31.20;;
1390;SDS011;690;51.454;7.194;2023-02-11T15:48:36;52.97;;;31.50;;